Time;durP1;ratioP1;P1;durP2;ratioP2;P2;SDS_P1;SDS_P2;PMS_P1;PMS_P2;Temp;Humidity;BMP_temperature;BMP_pressure;BME280_temperature;BME280_humidity;BME280_pressure;Samples;Min_cycle;Max_cycle;Signal;HPM_P1;HPM_P2
2023/07/03 00:02:18;;;;;;;3.15;2.38;;;;;;;28.42;35.85;100910.16;5056801;27;96781;-78
2023/07/03 00:04:48;;;;;;;3.33;2.10;;;;;;;28.42;35.78;100904.63;5053579;27;96733;-78
2023/07/03 00:07:15;;;;;;;3.88;2.40;;;;;;;28.42;35.69;100899.13;5054807;27;96960;-78
2023/07/03 00:09:42;;;;;;;3.17;2.17;;;;;;;28.42;35.91;100896.34;5052867;27;97854;-78
2023/07/03 00:12:10;;;;;;;3.10;2.22;;;;;;;28.42;35.87;100895.50;5051874;27;97653;-78
2023/07/03 00:14:38;;;;;;;3.63;2.20;;;;;;;28.41;35.80;100894.66;5053371;27;96610;-78
2023/07/03 00:17:07;;;;;;;3.65;2.75;;;;;;;28.41;35.90;100891.91;5052526;27;97051;-78
2023/07/03 00:19:34;;;;;;;3.05;2.30;;;;;;;28.41;35.82;100894.66;5053394;27;96905;-78
2023/07/03 00:22:01;;;;;;;2.83;2.10;;;;;;;28.41;35.79;100900.19;5051462;27;97813;-78
2023/07/03 00:24:29;;;;;;;3.58;2.50;;;;;;;28.40;35.80;100898.50;5051733;27;99256;-78
2023/07/03 00:26:56;;;;;;;3.60;2.28;;;;;;;28.40;35.86;100892.97;5053850;27;97001;-78
2023/07/03 00:29:23;;;;;;;3.38;2.20;;;;;;;28.40;35.82;100890.22;5035355;27;97046;-78
2023/07/03 00:31:50;;;;;;;3.17;2.20;;;;;;;28.41;35.56;100894.66;5051832;27;97123;-78
2023/07/03 00:34:18;;;;;;;3.63;2.10;;;;;;;28.41;35.74;100891.06;5054466;27;97142;-78
2023/07/03 00:36:45;;;;;;;2.35;2.13;;;;;;;28.40;35.65;100887.44;5052946;27;96911;-78
2023/07/03 00:39:12;;;;;;;3.08;2.25;;;;;;;28.40;35.82;100884.69;5049153;27;96719;-78
2023/07/03 00:41:39;;;;;;;2.92;2.15;;;;;;;28.40;35.86;100892.13;5047634;27;96661;-78
2023/07/03 00:44:24;;;;;;;2.83;2.10;;;;;;;28.41;35.81;100891.06;5037944;27;97218;-78
2023/07/03 00:46:51;;;;;;;2.53;2.00;;;;;;;28.38;35.84;100885.97;5050781;27;96777;-78
2023/07/03 00:49:20;;;;;;;4.38;2.60;;;;;;;28.38;35.70;100886.81;5046919;27;100236;-78
2023/07/03 00:51:52;;;;;;;2.80;1.90;;;;;;;28.40;35.85;100897.66;5051586;27;96631;-78
2023/07/03 00:54:19;;;;;;;3.03;2.30;;;;;;;28.38;35.77;100888.75;5052768;27;96758;-78
2023/07/03 00:56:46;;;;;;;2.90;2.00;;;;;;;28.38;35.68;100892.34;5039991;27;96735;-78
2023/07/03 00:59:15;;;;;;;2.88;2.20;;;;;;;28.37;35.80;100893.41;5052811;27;96939;-78
2023/07/03 01:01:44;;;;;;;3.45;2.45;;;;;;;28.37;35.71;100890.66;5052648;27;97035;-78
2023/07/03 01:04:12;;;;;;;3.15;2.13;;;;;;;28.37;35.70;100892.56;5053859;27;96705;-78
2023/07/03 01:06:45;;;;;;;3.10;1.98;;;;;;;28.38;35.75;100883.22;5053414;27;96837;-78
2023/07/03 01:09:15;;;;;;;3.35;2.10;;;;;;;28.37;35.75;100885.13;5033527;27;98218;-78
2023/07/03 01:11:44;;;;;;;3.08;2.15;;;;;;;28.36;35.82;100880.69;5052269;27;97555;-78
2023/07/03 01:14:16;;;;;;;2.50;2.15;;;;;;;28.36;35.67;100877.91;5051248;27;97273;-78
2023/07/03 01:16:43;;;;;;;3.60;2.30;;;;;;;28.35;35.56;100873.47;5054100;27;97341;-78
2023/07/03 01:19:15;;;;;;;2.92;2.10;;;;;;;28.36;35.75;100875.16;5051343;27;96901;-78
2023/07/03 01:21:55;;;;;;;2.95;2.00;;;;;;;28.37;35.80;100876.84;5051434;27;97093;-77
2023/07/03 01:24:52;;;;;;;3.28;2.20;;;;;;;28.36;35.80;100877.91;5046060;27;96712;-78
2023/07/03 01:27:22;;;;;;;3.72;2.13;;;;;;;28.35;35.70;100886.44;5049071;27;96777;-78
2023/07/03 01:29:51;;;;;;;3.40;2.15;;;;;;;28.34;35.77;100882.81;5042388;27;98007;-77
2023/07/03 01:32:24;;;;;;;3.17;2.20;;;;;;;28.35;35.71;100883.66;5051353;27;98252;-78
2023/07/03 01:34:53;;;;;;;3.28;1.95;;;;;;;28.35;35.70;100883.66;5034619;27;97643;-78
2023/07/03 01:37:26;;;;;;;2.97;2.08;;;;;;;28.34;35.62;100882.81;5053451;27;96599;-78
2023/07/03 01:39:54;;;;;;;2.60;1.90;;;;;;;28.34;35.71;100876.44;5049086;27;99468;-78
2023/07/03 01:42:23;;;;;;;3.67;2.20;;;;;;;28.34;35.78;100876.44;5050893;27;99766;-78
2023/07/03 01:44:50;;;;;;;3.42;2.08;;;;;;;28.33;35.54;100881.13;5033177;27;96860;-78
2023/07/03 01:47:17;;;;;;;3.42;1.95;;;;;;;28.34;35.64;100876.44;5053377;27;96889;-78
2023/07/03 01:49:44;;;;;;;3.08;2.30;;;;;;;28.34;35.75;100881.97;5051365;27;98207;-78
2023/07/03 01:52:20;;;;;;;2.58;1.90;;;;;;;28.34;35.84;100880.06;5051305;27;97393;-78
2023/07/03 01:55:03;;;;;;;3.35;2.17;;;;;;;28.33;35.74;100867.31;5051222;27;96939;-78
2023/07/03 01:57:45;;;;;;;2.75;1.90;;;;;;;28.33;35.74;100874.75;5052054;27;97333;-78
2023/07/03 02:00:17;;;;;;;2.42;1.70;;;;;;;28.32;35.65;100879.44;5055359;27;97025;-78
2023/07/03 02:02:48;;;;;;;3.63;2.38;;;;;;;28.32;35.78;100867.53;5036679;27;96804;-78
2023/07/03 02:05:22;;;;;;;3.58;2.30;;;;;;;28.32;35.65;100868.38;5035987;27;97122;-78
2023/07/03 02:07:52;;;;;;;2.85;1.80;;;;;;;28.32;35.66;100882.19;5053329;27;97214;-78
2023/07/03 02:10:19;;;;;;;2.97;1.92;;;;;;;28.32;35.53;100889.63;5033471;27;96782;-78
2023/07/03 02:12:46;;;;;;;3.58;2.10;;;;;;;28.31;35.61;100874.97;5033886;27;96819;-78
2023/07/03 02:15:17;;;;;;;2.25;1.73;;;;;;;28.31;35.49;100877.75;5052501;27;97354;-78
2023/07/03 02:17:45;;;;;;;3.47;2.10;;;;;;;28.31;35.58;100872.22;5053350;27;96792;-77
2023/07/03 02:20:16;;;;;;;2.78;1.77;;;;;;;28.31;35.55;100874.13;5054931;27;97653;-78
2023/07/03 02:22:43;;;;;;;2.83;1.77;;;;;;;28.30;35.50;100873.28;5050821;27;98786;-78
2023/07/03 02:25:11;;;;;;;2.65;1.88;;;;;;;28.31;35.54;100869.47;5050467;27;96837;-78
2023/07/03 02:27:39;;;;;;;2.67;1.95;;;;;;;28.30;35.71;100865.00;5051709;27;97559;-78
2023/07/03 02:30:06;;;;;;;3.20;1.92;;;;;;;28.30;35.39;100859.47;5052263;27;101028;-78
2023/07/03 02:32:35;;;;;;;3.53;2.00;;;;;;;28.30;35.71;100859.47;5047938;27;96925;-78
2023/07/03 02:35:04;;;;;;;3.15;1.95;;;;;;;28.30;35.56;100870.53;5042829;27;96778;-78
2023/07/03 02:37:30;;;;;;;3.28;1.90;;;;;;;28.30;35.49;100869.69;5043607;27;96993;-78
2023/07/03 02:39:57;;;;;;;2.55;1.60;;;;;;;28.30;35.51;100864.16;5047307;27;97828;-78
2023/07/03 02:42:26;;;;;;;2.92;1.95;;;;;;;28.31;35.54;100865.84;5051853;27;100892;-78
2023/07/03 02:44:53;;;;;;;3.28;1.88;;;;;;;28.30;35.57;100858.63;5053780;27;97038;-78
2023/07/03 02:47:19;;;;;;;2.50;1.80;;;;;;;28.30;35.44;100861.41;5039226;27;96769;-78
2023/07/03 02:49:47;;;;;;;2.25;1.55;;;;;;;28.29;35.37;100857.78;5050678;27;99371;-78
2023/07/03 02:52:14;;;;;;;2.60;1.70;;;;;;;28.29;35.54;100856.94;5047934;27;97152;-78
2023/07/03 02:54:40;;;;;;;2.95;1.92;;;;;;;28.30;35.50;100851.19;5051710;27;96899;-78
2023/07/03 02:57:08;;;;;;;3.63;2.22;;;;;;;28.29;35.57;100843.13;5047072;27;97225;-78
2023/07/03 02:59:35;;;;;;;2.53;1.73;;;;;;;28.27;35.30;100848.88;5042405;27;96748;-78
2023/07/03 03:02:02;;;;;;;2.53;1.88;;;;;;;28.29;35.41;100843.13;5050263;27;99269;-77
2023/07/03 03:04:30;;;;;;;3.10;1.83;;;;;;;28.27;35.40;100843.34;5052379;27;97235;-78
2023/07/03 03:06:57;;;;;;;3.40;1.92;;;;;;;28.28;35.67;100847.81;5049821;27;96826;-78
2023/07/03 03:09:23;;;;;;;2.75;1.85;;;;;;;28.27;35.55;100843.34;5030939;27;99137;-78
2023/07/03 03:11:51;;;;;;;2.67;1.85;;;;;;;28.27;35.41;100837.00;5035085;27;96923;-78
2023/07/03 03:14:18;;;;;;;2.42;1.60;;;;;;;28.26;35.53;100838.91;5049550;27;97534;-78
2023/07/03 03:16:45;;;;;;;2.72;1.75;;;;;;;28.26;35.32;100836.16;5042354;27;96866;-78
2023/07/03 03:19:11;;;;;;;4.53;1.80;;;;;;;28.26;35.40;100836.16;5045647;27;98542;-78
2023/07/03 03:21:38;;;;;;;3.10;1.77;;;;;;;28.26;35.46;100829.78;5044384;27;96861;-78
2023/07/03 03:24:05;;;;;;;2.90;1.77;;;;;;;28.26;35.42;100833.38;5049513;27;96773;-78
2023/07/03 03:26:32;;;;;;;2.50;1.90;;;;;;;28.26;35.32;100830.63;5034135;27;97177;-78
2023/07/03 03:28:59;;;;;;;2.67;1.70;;;;;;;28.26;35.41;100840.81;5044920;27;96852;-80
2023/07/03 03:31:27;;;;;;;3.08;1.85;;;;;;;28.25;35.71;100836.38;5046179;27;99534;-80
2023/07/03 03:33:58;;;;;;;2.50;1.73;;;;;;;28.25;35.59;100831.69;5048191;27;96806;-81
2023/07/03 03:36:25;;;;;;;2.28;1.70;;;;;;;28.25;35.40;100828.94;5046897;27;97051;-80
2023/07/03 03:38:53;;;;;;;2.63;1.80;;;;;;;28.25;35.58;100833.59;5035424;27;99176;-80
2023/07/03 03:41:20;;;;;;;2.67;1.92;;;;;;;28.25;35.30;100844.66;5048800;27;98812;-80
2023/07/03 03:43:46;;;;;;;2.55;1.70;;;;;;;28.25;35.67;100841.91;5045812;27;96807;-81
2023/07/03 03:46:13;;;;;;;2.42;1.73;;;;;;;28.24;35.35;100841.06;5035445;27;97365;-80
2023/07/03 03:48:40;;;;;;;2.92;1.80;;;;;;;28.24;35.40;100849.34;5051644;27;100272;-78
2023/07/03 03:51:09;;;;;;;3.38;1.75;;;;;;;28.24;35.41;100846.56;5051397;27;98808;-78
2023/07/03 03:53:35;;;;;;;2.10;1.40;;;;;;;28.23;35.08;100836.56;5043614;27;97361;-78
2023/07/03 03:56:02;;;;;;;2.22;1.40;;;;;;;28.23;35.40;100839.31;5033940;27;96729;-78
2023/07/03 03:58:31;;;;;;;3.25;1.70;;;;;;;28.24;35.40;100834.66;5051098;27;98905;-78
2023/07/03 04:00:58;;;;;;;2.60;1.85;;;;;;;28.24;35.10;100842.94;5043475;27;96834;-78
2023/07/03 04:03:24;;;;;;;2.78;1.60;;;;;;;28.23;35.31;100847.59;5048251;27;96733;-78
2023/07/03 04:05:51;;;;;;;2.78;1.80;;;;;;;28.23;35.46;100852.25;5048994;27;96849;-78
2023/07/03 04:08:18;;;;;;;2.80;1.70;;;;;;;28.22;35.58;100840.38;5045365;27;97051;-78
2023/07/03 04:10:45;;;;;;;3.13;2.00;;;;;;;28.22;35.24;100845.03;5052459;27;96774;-78
2023/07/03 04:13:12;;;;;;;3.13;1.60;;;;;;;28.23;35.42;100846.72;5048651;27;97298;-78
2023/07/03 04:16:00;;;;;;;3.03;1.67;;;;;;;28.24;35.28;100851.22;5044796;27;97448;-78
2023/07/03 04:18:28;;;;;;;3.35;2.10;;;;;;;28.21;35.42;100846.13;5044783;27;101052;-78
2023/07/03 04:20:55;;;;;;;2.40;1.67;;;;;;;28.21;35.23;100835.91;5048593;27;97919;-78
2023/07/03 04:23:22;;;;;;;3.55;1.77;;;;;;;28.21;35.37;100841.44;5034360;27;97062;-78
2023/07/03 04:25:49;;;;;;;3.67;1.95;;;;;;;28.21;35.20;100844.19;5048185;27;96934;-78
2023/07/03 04:28:18;;;;;;;3.38;2.05;;;;;;;28.20;35.26;100842.50;5048083;27;96913;-78
2023/07/03 04:30:46;;;;;;;2.85;1.80;;;;;;;28.21;35.27;100840.59;5043285;27;96802;-78
2023/07/03 04:33:13;;;;;;;2.90;1.45;;;;;;;28.20;35.14;100845.28;5048369;27;97041;-78
2023/07/03 04:35:40;;;;;;;3.38;1.60;;;;;;;28.21;35.31;100849.72;5049955;27;98173;-78
2023/07/03 04:38:07;;;;;;;1.92;1.55;;;;;;;28.20;35.35;100850.78;5030698;27;100606;-78
2023/07/03 04:40:34;;;;;;;2.50;1.50;;;;;;;28.20;35.30;100848.03;5038066;27;99566;-78
2023/07/03 04:43:01;;;;;;;3.17;1.58;;;;;;;28.20;35.35;100853.56;5046995;27;96873;-78
2023/07/03 04:45:30;;;;;;;3.95;2.08;;;;;;;28.21;35.23;100843.34;5049498;27;96941;-78
2023/07/03 04:47:57;;;;;;;2.88;1.65;;;;;;;28.20;35.10;100845.28;5046160;27;98189;-78
2023/07/03 04:50:24;;;;;;;3.10;1.80;;;;;;;28.20;35.18;100849.94;5052353;27;96897;-78
2023/07/03 04:52:52;;;;;;;2.08;1.50;;;;;;;28.20;35.26;100855.47;5058891;27;96673;-78
2023/07/03 04:55:22;;;;;;;2.63;1.70;;;;;;;28.19;35.42;100851.84;5047971;27;97172;-78
2023/07/03 04:57:49;;;;;;;2.25;1.45;;;;;;;28.19;35.26;100849.09;5045661;27;97076;-78
2023/07/03 05:00:19;;;;;;;2.50;1.42;;;;;;;28.20;35.27;100869.28;5051253;27;97237;-78
2023/07/03 05:02:48;;;;;;;2.58;1.48;;;;;;;28.19;35.26;100860.16;5051756;27;96825;-78
2023/07/03 05:05:16;;;;;;;2.97;1.58;;;;;;;28.19;35.33;100862.91;5046644;27;96862;-78
2023/07/03 05:07:44;;;;;;;2.35;1.70;;;;;;;28.19;35.24;100876.72;5048154;27;96766;-78
2023/07/03 05:10:13;;;;;;;2.50;1.50;;;;;;;28.19;35.20;100871.19;5044458;27;100403;-78
2023/07/03 05:12:40;;;;;;;3.03;1.85;;;;;;;28.18;35.10;100870.34;5043909;27;97146;-78
2023/07/03 05:15:08;;;;;;;2.42;1.40;;;;;;;28.19;35.46;100876.72;5046735;27;97268;-78
2023/07/03 05:17:38;;;;;;;3.00;1.70;;;;;;;28.18;35.36;100877.78;5049794;27;96976;-78
2023/07/03 05:20:12;;;;;;;2.60;1.60;;;;;;;28.19;35.33;100885.00;5032404;27;97576;-78
2023/07/03 05:22:42;;;;;;;2.70;1.60;;;;;;;28.18;35.27;100884.16;5034619;27;96856;-78
2023/07/03 05:25:11;;;;;;;3.42;2.30;;;;;;;28.17;35.42;100887.97;5043220;27;96785;-78
2023/07/03 05:27:38;;;;;;;2.53;1.70;;;;;;;28.18;35.10;100894.34;5051301;27;96850;-78
2023/07/03 05:30:07;;;;;;;2.83;1.52;;;;;;;28.17;35.22;100887.13;5045401;27;97851;-78
2023/07/03 05:32:34;;;;;;;3.80;1.80;;;;;;;28.16;35.28;100889.06;5045665;27;96605;-78
2023/07/03 05:35:03;;;;;;;3.00;1.65;;;;;;;28.16;35.13;100893.72;5043524;27;98762;-78
2023/07/03 05:37:29;;;;;;;2.35;1.60;;;;;;;28.16;35.19;100890.97;5047488;27;96865;-78
2023/07/03 05:39:56;;;;;;;4.03;1.58;;;;;;;28.16;34.99;100900.09;5046673;27;97424;-78
2023/07/03 05:42:23;;;;;;;2.85;1.63;;;;;;;28.16;35.17;100900.09;5048925;27;96955;-78
2023/07/03 05:44:50;;;;;;;4.00;1.60;;;;;;;28.16;35.04;100902.00;5047824;27;96974;-77
2023/07/03 05:47:16;;;;;;;3.03;1.70;;;;;;;28.17;35.14;100898.19;5050968;27;97094;-77
2023/07/03 05:49:43;;;;;;;3.10;1.90;;;;;;;28.17;35.03;100906.47;5038260;27;99537;-77
2023/07/03 05:52:10;;;;;;;2.83;1.70;;;;;;;28.17;35.19;100903.72;5042272;27;96934;-77
2023/07/03 05:54:38;;;;;;;3.35;1.85;;;;;;;28.16;35.26;100900.09;5041094;27;96642;-77
2023/07/03 05:57:07;;;;;;;2.58;1.40;;;;;;;28.16;34.98;100908.38;5047572;27;100341;-77
2023/07/03 05:59:35;;;;;;;3.50;1.90;;;;;;;28.16;35.19;100902.00;5045153;27;97140;-77
2023/07/03 06:02:05;;;;;;;3.83;1.67;;;;;;;28.17;35.15;100898.19;5048506;27;97553;-77
2023/07/03 06:04:33;;;;;;;3.13;1.65;;;;;;;28.16;35.13;100904.78;5030002;27;97037;-77
2023/07/03 06:07:00;;;;;;;2.58;1.70;;;;;;;28.16;35.21;100907.53;5044398;27;97614;-77
2023/07/03 06:09:28;;;;;;;2.97;1.85;;;;;;;28.16;35.27;100905.63;5041483;27;97410;-77
2023/07/03 06:11:58;;;;;;;3.50;1.80;;;;;;;28.16;35.16;100905.63;5042518;27;99350;-77
2023/07/03 06:14:25;;;;;;;2.63;1.70;;;;;;;28.16;35.10;100910.31;5045475;27;96774;-77
2023/07/03 06:16:53;;;;;;;3.05;1.60;;;;;;;28.17;35.02;100914.75;5043629;27;96759;-77
2023/07/03 06:19:20;;;;;;;2.20;1.63;;;;;;;28.14;35.22;100913.28;5046045;27;96768;-77
2023/07/03 06:21:47;;;;;;;2.50;1.63;;;;;;;28.16;34.79;100915.81;5043185;27;97956;-77
2023/07/03 06:24:14;;;;;;;3.47;1.77;;;;;;;28.15;35.05;100919.66;5042834;27;97063;-77
2023/07/03 06:26:43;;;;;;;3.67;1.77;;;;;;;28.16;35.07;100924.09;5047702;27;96925;-77
2023/07/03 06:29:11;;;;;;;3.13;1.55;;;;;;;28.15;35.27;100923.25;5046593;27;97711;-77
2023/07/03 06:31:40;;;;;;;2.67;1.70;;;;;;;28.15;35.11;100919.66;5047596;27;97280;-77
2023/07/03 06:34:07;;;;;;;3.40;1.63;;;;;;;28.15;34.87;100922.41;5044896;27;96907;-77
2023/07/03 06:36:37;;;;;;;2.35;1.52;;;;;;;28.14;35.05;100916.03;5043397;27;96887;-77
2023/07/03 06:39:08;;;;;;;2.92;1.55;;;;;;;28.15;35.44;100925.19;5044945;27;97595;-77
2023/07/03 06:41:35;;;;;;;2.80;1.73;;;;;;;28.15;35.09;100922.41;5040999;27;96777;-77
2023/07/03 06:44:06;;;;;;;3.05;1.70;;;;;;;28.16;35.16;100921.34;5047330;27;96740;-77
2023/07/03 06:46:33;;;;;;;4.03;1.80;;;;;;;28.13;35.18;100919.88;5040137;27;97168;-77
2023/07/03 06:49:00;;;;;;;3.15;1.63;;;;;;;28.14;35.12;100921.56;5034602;27;97444;-77
2023/07/03 06:51:27;;;;;;;2.95;1.75;;;;;;;28.14;35.25;100921.56;5038274;27;96790;-77
2023/07/03 06:53:54;;;;;;;4.18;2.00;;;;;;;28.13;35.03;100925.41;5034334;27;96776;-77
2023/07/03 06:56:20;;;;;;;3.25;1.67;;;;;;;28.13;35.26;100922.63;5037384;27;96839;-77
2023/07/03 06:58:49;;;;;;;3.35;1.58;;;;;;;28.14;35.03;100923.47;5034924;27;97956;-77
2023/07/03 07:01:17;;;;;;;3.67;1.95;;;;;;;28.14;35.10;100923.47;5038252;27;96647;-77
2023/07/03 07:03:45;;;;;;;3.03;1.70;;;;;;;28.13;35.17;100933.69;5035755;27;96701;-77
2023/07/03 07:06:22;;;;;;;3.17;1.55;;;;;;;28.14;35.20;100926.25;5038542;27;96749;-77
2023/07/03 07:08:49;;;;;;;3.05;1.50;;;;;;;28.13;35.12;100932.84;5038035;27;96756;-77
2023/07/03 07:11:19;;;;;;;3.55;2.05;;;;;;;28.13;35.21;100928.16;5036469;27;97058;-77
2023/07/03 07:13:48;;;;;;;6.68;1.73;;;;;;;28.13;35.28;100928.16;5039889;27;96802;-77
2023/07/03 07:16:21;;;;;;;3.42;1.60;;;;;;;28.13;35.12;100925.41;5036464;27;97516;-77
2023/07/03 07:18:52;;;;;;;4.72;1.70;;;;;;;28.13;35.40;100927.31;5037155;27;99302;-77
2023/07/03 07:21:19;;;;;;;3.50;1.90;;;;;;;28.12;35.27;100932.00;5035381;27;96847;-77
2023/07/03 07:23:58;;;;;;;2.80;1.85;;;;;;;28.13;35.16;100938.34;5041705;27;97013;-77
2023/07/03 07:26:33;;;;;;;2.88;1.85;;;;;;;28.12;35.15;100943.03;5032193;27;99078;-77
2023/07/03 07:29:01;;;;;;;2.28;1.67;;;;;;;28.12;35.20;100933.91;5035748;27;98312;-77
2023/07/03 07:31:28;;;;;;;3.35;1.92;;;;;;;28.11;35.30;100922.00;5048613;27;96938;-77
2023/07/03 07:33:55;;;;;;;2.63;1.60;;;;;;;28.12;35.21;100931.16;5047523;27;96763;-77
2023/07/03 07:36:25;;;;;;;2.97;1.95;;;;;;;28.12;34.98;100929.22;5046845;27;100909;-77
2023/07/03 07:38:53;;;;;;;8.93;2.08;;;;;;;28.12;35.21;100933.91;5030637;27;97345;-77
2023/07/03 07:41:24;;;;;;;3.50;1.70;;;;;;;28.12;35.20;100944.94;5032507;27;97093;-77
2023/07/03 07:43:52;;;;;;;6.03;1.85;;;;;;;28.12;34.99;100942.19;5045446;27;96721;-77
2023/07/03 07:46:20;;;;;;;2.90;1.50;;;;;;;28.11;35.15;100946.03;5030677;27;100202;-77
2023/07/03 07:48:47;;;;;;;3.78;1.80;;;;;;;28.12;35.00;100945.78;5046057;27;98689;-77
2023/07/03 07:51:14;;;;;;;3.55;1.75;;;;;;;28.12;35.12;100951.31;5051056;27;97050;-77
2023/07/03 07:53:41;;;;;;;4.13;1.80;;;;;;;28.11;35.12;100955.16;5035796;27;97900;-77
2023/07/03 07:56:08;;;;;;;3.65;2.15;;;;;;;28.11;35.18;100944.09;5037324;27;97560;-77
2023/07/03 07:58:35;;;;;;;3.63;2.00;;;;;;;28.12;35.22;100956.00;5050866;27;97063;-77
2023/07/03 08:01:02;;;;;;;3.30;2.10;;;;;;;28.12;35.24;100947.72;5043788;27;96806;-77
2023/07/03 08:03:29;;;;;;;4.18;2.08;;;;;;;28.11;35.28;100951.53;5047055;27;96912;-77
2023/07/03 08:05:57;;;;;;;4.60;1.90;;;;;;;28.11;35.24;100951.53;5042667;27;97579;-77
2023/07/03 08:08:26;;;;;;;5.18;2.28;;;;;;;28.11;35.05;100951.53;5031741;27;96752;-77
2023/07/03 08:10:57;;;;;;;4.43;2.38;;;;;;;28.12;35.32;100964.28;5040331;27;97118;-77
2023/07/03 08:13:24;;;;;;;4.53;2.30;;;;;;;28.12;35.28;100958.75;5044992;27;96855;-77
2023/07/03 08:15:52;;;;;;;3.20;1.50;;;;;;;28.12;35.18;100956.00;5043309;27;96952;-77
2023/07/03 08:18:19;;;;;;;4.40;1.73;;;;;;;28.12;35.46;100953.22;5042777;27;97336;-77
2023/07/03 08:20:49;;;;;;;2.88;1.88;;;;;;;28.12;35.00;100956.00;5047633;27;97081;-77
2023/07/03 08:23:16;;;;;;;3.70;1.95;;;;;;;28.12;35.16;100953.22;5047004;27;96725;-77
2023/07/03 08:25:47;;;;;;;3.58;1.80;;;;;;;28.12;35.29;100950.47;5047553;27;97789;-77
2023/07/03 08:28:14;;;;;;;4.75;2.05;;;;;;;28.11;35.01;100952.38;5044285;27;99002;-77
2023/07/03 08:30:41;;;;;;;3.30;2.10;;;;;;;28.12;35.17;100953.22;5027289;27;98585;-77
2023/07/03 08:33:08;;;;;;;3.95;1.90;;;;;;;28.12;35.03;100953.22;5045705;27;96905;-77
2023/07/03 08:35:34;;;;;;;4.78;1.83;;;;;;;28.12;34.98;100958.75;5043612;27;96749;-77
2023/07/03 08:38:04;;;;;;;3.47;1.65;;;;;;;28.11;35.09;100960.66;5031062;27;97400;-77
2023/07/03 08:40:30;;;;;;;3.85;1.90;;;;;;;28.11;35.39;100968.97;5032029;27;96788;-77
2023/07/03 08:42:59;;;;;;;3.22;2.00;;;;;;;28.11;35.18;100963.44;5031955;27;96997;-77
2023/07/03 08:45:35;;;;;;;5.68;2.38;;;;;;;28.12;35.32;100961.50;5055526;27;99156;-77
2023/07/03 08:48:09;;;;;;;3.47;1.73;;;;;;;28.12;35.11;100964.28;5038000;27;98010;-77
2023/07/03 08:50:37;;;;;;;4.22;2.20;;;;;;;28.09;35.33;100962.81;5051084;27;96996;-77
2023/07/03 08:53:05;;;;;;;3.55;2.00;;;;;;;28.11;35.15;100973.63;5051556;27;97365;-77
2023/07/03 08:55:41;;;;;;;4.78;2.45;;;;;;;28.12;35.15;100969.81;5047046;27;98166;-77
2023/07/03 08:58:09;;;;;;;3.55;2.10;;;;;;;28.11;35.49;100979.16;5029832;27;97292;-77
2023/07/03 09:00:45;;;;;;;5.13;1.92;;;;;;;28.11;35.33;100982.75;5034147;27;97962;-77
2023/07/03 09:03:28;;;;;;;5.35;2.38;;;;;;;28.11;35.11;100982.75;5045934;27;97427;-77
2023/07/03 09:06:39;;;;;;;3.75;1.83;;;;;;;28.11;35.38;100993.81;5031764;27;99721;-77
2023/07/03 09:09:27;;;;;;;4.43;2.20;;;;;;;28.08;35.07;100983.19;4955104;28;96758;-77
2023/07/03 09:12:22;;;;;;;4.35;2.15;;;;;;;28.09;35.25;100986.81;5031983;27;98146;-77
2023/07/03 09:15:24;;;;;;;4.78;2.15;;;;;;;28.08;35.27;100983.19;5035762;27;96717;-77
2023/07/03 09:17:53;;;;;;;4.70;2.15;;;;;;;28.07;35.16;100980.66;5003136;27;97385;-77
2023/07/03 09:20:24;;;;;;;5.15;1.90;;;;;;;28.07;35.14;100991.72;5031811;27;96701;-77
2023/07/03 09:23:13;;;;;;;3.95;1.98;;;;;;;28.09;35.41;100981.28;5031111;27;96761;-77
2023/07/03 09:25:42;;;;;;;4.68;2.10;;;;;;;28.07;35.35;100987.03;5031378;27;96767;-77
2023/07/03 09:28:09;;;;;;;5.22;2.40;;;;;;;28.08;35.16;100980.44;5034538;27;97138;-77
2023/07/03 09:30:37;;;;;;;5.13;2.30;;;;;;;28.08;35.25;100991.50;5043528;27;97297;-77
2023/07/03 09:33:06;;;;;;;4.78;2.17;;;;;;;28.09;35.28;100973.84;5049684;27;97534;-77
2023/07/03 09:35:41;;;;;;;6.97;2.22;;;;;;;28.09;35.18;100982.13;5038946;27;97291;-77
2023/07/03 09:38:12;;;;;;;5.22;2.30;;;;;;;28.08;35.10;100977.69;5037443;27;97434;-77
2023/07/03 09:40:42;;;;;;;4.22;2.38;;;;;;;28.10;35.29;100985.75;5039274;27;97634;-77
2023/07/03 09:43:14;;;;;;;4.50;2.10;;;;;;;28.10;35.13;100989.34;5043533;27;97174;-77
2023/07/03 09:45:41;;;;;;;4.65;2.08;;;;;;;28.10;35.10;100988.50;5045909;27;96942;-77
2023/07/03 09:48:22;;;;;;;5.10;2.22;;;;;;;28.11;35.25;100985.53;5042585;27;97627;-77
2023/07/03 09:50:50;;;;;;;4.18;2.50;;;;;;;28.09;35.16;100992.34;5049137;27;96615;-77
2023/07/03 09:53:26;;;;;;;5.25;2.72;;;;;;;28.10;35.12;100991.25;5038486;27;96976;-77
2023/07/03 09:55:58;;;;;;;6.50;2.35;;;;;;;28.10;34.98;100999.56;5016273;27;97120;-77
2023/07/03 09:58:27;;;;;;;5.10;2.55;;;;;;;28.10;34.84;100996.78;5038898;27;97307;-77
2023/07/03 10:00:57;;;;;;;5.60;2.30;;;;;;;28.10;34.88;100994.03;5042794;27;96733;-77
2023/07/03 10:03:26;;;;;;;5.13;2.38;;;;;;;28.09;34.82;101007.00;5037907;27;96885;-77
2023/07/03 10:05:55;;;;;;;4.50;2.50;;;;;;;28.09;34.75;100989.56;5040010;27;96651;-77
2023/07/03 10:08:27;;;;;;;5.72;2.60;;;;;;;28.10;34.72;100999.56;5047580;27;98532;-77
2023/07/03 10:10:59;;;;;;;3.75;1.90;;;;;;;28.10;34.65;100991.25;5041956;27;97602;-77
2023/07/03 10:13:31;;;;;;;5.20;2.35;;;;;;;28.08;34.59;101002.53;5046079;27;96840;-77
2023/07/03 10:15:59;;;;;;;4.47;2.20;;;;;;;28.09;34.54;101006.13;5045898;27;96877;-77
2023/07/03 10:18:28;;;;;;;4.55;2.25;;;;;;;28.09;34.49;101018.03;5048683;27;97654;-77
2023/07/03 10:20:56;;;;;;;5.07;2.22;;;;;;;28.08;34.59;101009.97;5047177;27;98734;-77
2023/07/03 10:23:26;;;;;;;6.05;2.50;;;;;;;28.10;34.53;101016.13;5040033;27;96714;-77
2023/07/03 10:26:04;;;;;;;6.85;2.33;;;;;;;28.09;34.46;101018.03;5048936;27;96866;-77
2023/07/03 10:28:38;;;;;;;4.57;2.28;;;;;;;28.08;34.38;101016.34;5051867;27;97106;-77
2023/07/03 10:31:13;;;;;;;4.20;2.13;;;;;;;28.07;34.27;101020.16;5051224;27;96940;-77
2023/07/03 10:33:45;;;;;;;4.72;2.33;;;;;;;28.07;34.45;101013.78;5042624;27;96761;-77
2023/07/03 10:36:20;;;;;;;6.75;2.15;;;;;;;28.08;34.36;101013.56;5035329;27;97508;-77
2023/07/03 10:39:03;;;;;;;5.00;2.72;;;;;;;28.07;34.37;101009.13;5045144;27;97242;-77
2023/07/03 10:41:42;;;;;;;4.70;2.40;;;;;;;28.08;34.25;101009.97;5038862;27;96824;-77
2023/07/03 10:44:15;;;;;;;6.32;2.38;;;;;;;28.07;34.26;101000.00;5037828;27;97336;-77
2023/07/03 10:47:06;;;;;;;3.85;2.13;;;;;;;28.07;34.25;100987.03;5040414;27;97263;-77
2023/07/03 10:49:35;;;;;;;3.45;2.33;;;;;;;28.07;34.21;100987.03;5038353;27;97108;-77
2023/07/03 10:52:25;;;;;;;7.47;2.40;;;;;;;28.08;33.85;100988.72;5042137;27;96644;-77
2023/07/03 10:54:56;;;;;;;5.18;2.67;;;;;;;28.08;34.24;100998.91;5039658;27;98918;-77
2023/07/03 10:57:32;;;;;;;5.53;2.33;;;;;;;28.08;34.53;100987.88;5040975;27;96804;-77
2023/07/03 11:00:07;;;;;;;5.97;2.22;;;;;;;28.08;34.05;100987.88;5047657;27;97202;-77
2023/07/03 11:02:51;;;;;;;5.80;2.30;;;;;;;28.08;34.21;100985.13;5039980;27;99026;-77
2023/07/03 11:05:28;;;;;;;4.90;2.40;;;;;;;28.08;34.10;100982.34;5051159;27;97112;-76
2023/07/03 11:08:16;;;;;;;3.70;2.22;;;;;;;28.07;33.99;100976.00;5044437;27;96940;-77
2023/07/03 11:10:45;;;;;;;4.88;2.40;;;;;;;28.06;34.10;100979.81;5041706;27;97078;-76
2023/07/03 11:13:20;;;;;;;4.13;2.00;;;;;;;28.08;34.08;100985.13;5048991;27;96767;-76
2023/07/03 11:16:00;;;;;;;;;;;;;;;28.03;34.17;100987.69;5018072;27;97402;-76
2023/07/03 11:18:41;;;;;;;5.38;2.25;;;;;;;28.03;33.82;100991.31;5049499;27;96751;-77
2023/07/03 11:21:37;;;;;;;4.78;2.05;;;;;;;28.05;34.16;100991.94;5038489;27;97083;-77
2023/07/03 11:24:15;;;;;;;3.67;1.75;;;;;;;28.04;34.08;100993.00;5048268;27;97631;-76
2023/07/03 11:26:52;;;;;;;5.68;2.28;;;;;;;28.05;34.02;100993.84;5047266;27;96793;-76
2023/07/03 11:29:22;;;;;;;3.83;2.10;;;;;;;28.06;33.87;100995.53;5050247;27;97331;-76
2023/07/03 11:31:50;;;;;;;3.83;1.92;;;;;;;28.05;33.87;100986.41;5049790;27;97751;-77
2023/07/03 11:34:19;;;;;;;5.32;2.40;;;;;;;28.07;34.16;100986.19;5041124;27;96886;-76
2023/07/03 11:36:57;;;;;;;5.93;2.33;;;;;;;28.07;33.88;100984.28;5040395;27;96708;-76
2023/07/03 11:39:30;;;;;;;5.07;2.03;;;;;;;28.07;33.98;100981.50;5044947;27;97877;-77